createdAt,value
2019-02-03T00:01:38.836Z,89.53
2019-02-03T00:04:08.096Z,93.03
2019-02-03T00:06:37.482Z,91.73
2019-02-03T00:09:14.058Z,103.10
2019-02-03T00:11:43.561Z,101.30
2019-02-03T00:14:12.918Z,99.97
2019-02-03T00:16:42.236Z,92.40
2019-02-03T00:19:12.083Z,93.83
2019-02-03T00:21:41.436Z,98.27
2019-02-03T00:24:10.833Z,88.57
2019-02-03T00:26:40.103Z,96.87
2019-02-03T00:29:09.383Z,92.33
2019-02-03T00:31:38.762Z,91.43
2019-02-03T00:34:08.120Z,96.07
2019-02-03T00:36:37.536Z,92.27
2019-02-03T00:39:09.395Z,92.53
2019-02-03T00:41:38.817Z,87.17
2019-02-03T00:44:08.151Z,97.33
2019-02-03T00:46:37.607Z,85.93
2019-02-03T00:49:06.990Z,95.60
2019-02-03T00:51:36.345Z,99.90
2019-02-03T00:54:06.239Z,109.00
2019-02-03T00:56:35.542Z,111.53
2019-02-03T00:59:05.513Z,106.80
2019-02-03T01:01:34.861Z,119.07
2019-02-03T01:04:04.657Z,125.70
2019-02-03T01:06:34.030Z,120.27
2019-02-03T01:09:04.065Z,114.50
2019-02-03T01:11:33.445Z,124.77
2019-02-03T01:14:02.825Z,134.63
2019-02-03T01:16:32.253Z,113.90
2019-02-03T01:19:01.553Z,118.57
2019-02-03T01:21:30.825Z,116.83
2019-02-03T01:24:00.223Z,112.20
2019-02-03T01:26:29.926Z,122.60
2019-02-03T01:28:59.251Z,128.57
2019-02-03T01:31:28.615Z,142.27
2019-02-03T01:33:57.964Z,149.63
2019-02-03T01:36:27.361Z,140.67
2019-02-03T01:38:56.739Z,136.27
2019-02-03T01:41:28.960Z,131.23
2019-02-03T01:43:58.260Z,124.97
2019-02-03T01:46:27.596Z,113.93
2019-02-03T01:48:56.961Z,110.97
2019-02-03T01:51:26.428Z,107.83
2019-02-03T01:53:55.809Z,96.67
2019-02-03T01:56:25.168Z,102.83
2019-02-03T01:58:54.425Z,102.37
2019-02-03T02:01:23.799Z,95.60
2019-02-03T02:03:53.095Z,101.60
2019-02-03T02:06:25.633Z,94.43
2019-02-03T02:08:54.979Z,93.10
2019-02-03T02:11:24.355Z,98.73
2019-02-03T02:13:53.733Z,101.43
2019-02-03T02:16:23.051Z,101.90
2019-02-03T02:18:52.384Z,101.60
2019-02-03T02:21:21.724Z,101.37
2019-02-03T02:23:51.110Z,92.37
2019-02-03T02:26:20.466Z,92.57
2019-02-03T02:28:49.850Z,94.37
2019-02-03T02:31:19.214Z,96.40
2019-02-03T02:33:48.960Z,102.80
2019-02-03T02:36:18.324Z,95.80
2019-02-03T02:38:47.662Z,112.10
2019-02-03T02:41:17.045Z,123.57
2019-02-03T02:43:46.358Z,111.60
2019-02-03T02:46:15.763Z,134.10
2019-02-03T02:48:45.101Z,133.33
2019-02-03T02:51:14.444Z,158.43
2019-02-03T02:53:43.799Z,186.33
2019-02-03T02:56:13.159Z,190.93
2019-02-03T02:58:42.557Z,179.27
2019-02-03T03:01:11.905Z,162.23
2019-02-03T03:03:41.356Z,157.40
2019-02-03T03:06:10.766Z,131.70
2019-02-03T03:08:40.064Z,122.50
2019-02-03T03:11:09.461Z,130.00
2019-02-03T03:13:39.010Z,114.57
2019-02-03T03:16:08.456Z,122.63
2019-02-03T03:18:37.851Z,111.70
2019-02-03T03:21:07.283Z,112.20
2019-02-03T03:23:36.608Z,128.63
2019-02-03T03:26:05.986Z,117.30
2019-02-03T03:28:35.846Z,118.07
2019-02-03T03:31:05.414Z,123.20
2019-02-03T03:33:34.758Z,109.50
2019-02-03T03:36:04.527Z,137.63
2019-02-03T03:38:33.921Z,134.30
2019-02-03T03:41:03.262Z,139.07
2019-02-03T03:43:32.633Z,127.70
2019-02-03T03:46:02.003Z,116.07
2019-02-03T03:48:31.337Z,116.17
2019-02-03T03:51:00.714Z,110.53
2019-02-03T03:53:30.068Z,119.17
2019-02-03T03:56:00.232Z,110.27
2019-02-03T03:58:29.551Z,124.17
2019-02-03T04:00:58.938Z,118.50
2019-02-03T04:03:28.278Z,131.37
2019-02-03T04:05:57.640Z,122.67
2019-02-03T04:08:26.992Z,134.30
2019-02-03T04:10:56.341Z,146.50
2019-02-03T04:13:44.797Z,145.53
2019-02-03T04:16:14.195Z,153.77
2019-02-03T04:18:43.499Z,160.07
2019-02-03T04:21:12.872Z,159.73
2019-02-03T04:23:42.147Z,174.73
2019-02-03T04:26:11.524Z,161.27
2019-02-03T04:28:40.826Z,174.53
2019-02-03T04:31:10.181Z,166.80
2019-02-03T04:33:39.859Z,151.30
2019-02-03T04:36:09.248Z,137.73
2019-02-03T04:38:38.606Z,140.80
2019-02-03T04:41:07.974Z,130.00
2019-02-03T04:43:37.347Z,128.87
2019-02-03T04:46:06.626Z,128.77
2019-02-03T04:48:36.007Z,117.27
2019-02-03T04:51:05.307Z,120.53
2019-02-03T04:53:34.676Z,122.57
2019-02-03T04:56:04.009Z,126.00
2019-02-03T04:58:33.399Z,137.47
2019-02-03T05:01:03.159Z,129.83
2019-02-03T05:03:32.422Z,138.67
2019-02-03T05:06:01.697Z,139.83
2019-02-03T05:08:31.064Z,152.87
2019-02-03T05:11:00.411Z,151.70
2019-02-03T05:13:29.786Z,167.77
2019-02-03T05:15:59.138Z,149.80
2019-02-03T05:18:28.494Z,154.00
2019-02-03T05:20:57.868Z,154.20
2019-02-03T05:23:27.226Z,152.53
2019-02-03T05:25:56.556Z,130.40
2019-02-03T05:28:26.240Z,123.97
2019-02-03T05:30:55.593Z,126.83
2019-02-03T05:33:25.018Z,119.10
2019-02-03T05:35:54.403Z,130.03
2019-02-03T05:38:23.718Z,112.07
2019-02-03T05:40:53.115Z,106.27
2019-02-03T05:43:22.509Z,114.87
2019-02-03T05:45:51.863Z,121.23
2019-02-03T05:48:21.235Z,116.90
2019-02-03T05:50:50.496Z,114.53
2019-02-03T05:53:19.847Z,109.37
2019-02-03T05:55:49.230Z,95.07
2019-02-03T05:58:18.579Z,78.13
2019-02-03T06:00:47.951Z,85.17
2019-02-03T06:03:17.319Z,76.33
2019-02-03T06:05:46.628Z,77.33
2019-02-03T06:08:15.907Z,75.00
2019-02-03T06:10:45.474Z,66.63
2019-02-03T06:13:14.854Z,67.27
2019-02-03T06:15:44.204Z,72.87
2019-02-03T06:18:13.559Z,70.13
2019-02-03T06:20:42.941Z,64.17
2019-02-03T06:23:12.521Z,60.73
2019-02-03T06:25:41.857Z,54.97
2019-02-03T06:28:11.214Z,63.30
2019-02-03T06:31:17.627Z,56.80
2019-02-03T06:33:50.929Z,51.00
2019-02-03T06:36:20.512Z,56.73
2019-02-03T06:38:50.596Z,52.23
2019-02-03T06:41:20.057Z,45.37
2019-02-03T06:43:49.826Z,47.73
2019-02-03T06:46:37.040Z,49.27
2019-02-03T06:49:35.527Z,48.70
2019-02-03T06:52:06.128Z,47.87
2019-02-03T06:54:35.486Z,44.90
2019-02-03T06:57:06.032Z,43.50
2019-02-03T06:59:35.404Z,50.23
2019-02-03T07:02:05.176Z,46.40
2019-02-03T07:04:34.494Z,45.07
2019-02-03T07:07:04.165Z,42.27
2019-02-03T07:09:33.499Z,46.73
2019-02-03T07:12:02.855Z,46.47
2019-02-03T07:14:32.226Z,42.33
2019-02-03T07:17:01.616Z,44.93
2019-02-03T07:19:30.995Z,43.40
2019-02-03T07:22:00.293Z,41.53
2019-02-03T07:24:29.653Z,43.50
2019-02-03T07:26:59.057Z,44.73
2019-02-03T07:29:28.808Z,48.77
2019-02-03T07:31:58.132Z,51.70
2019-02-03T07:34:27.503Z,51.10
2019-02-03T07:36:56.880Z,45.87
2019-02-03T07:39:26.172Z,48.93
2019-02-03T07:41:55.452Z,55.07
2019-02-03T07:44:24.808Z,47.83
2019-02-03T07:46:54.122Z,48.07
2019-02-03T07:49:23.429Z,51.60
2019-02-03T07:51:52.840Z,50.50
2019-02-03T07:54:22.237Z,49.57
2019-02-03T07:56:51.949Z,46.17
2019-02-03T07:59:21.328Z,50.63
2019-02-03T08:01:50.735Z,55.37
2019-02-03T08:04:20.105Z,64.80
2019-02-03T08:06:49.489Z,69.27
2019-02-03T08:09:19.017Z,58.83
2019-02-03T08:11:48.676Z,64.73
2019-02-03T08:14:18.149Z,66.10
2019-02-03T08:16:47.476Z,55.80
2019-02-03T08:19:16.776Z,61.33
2019-02-03T08:21:46.319Z,52.63
2019-02-03T08:24:15.616Z,54.10
2019-02-03T08:26:45.034Z,48.90
2019-02-03T08:29:15.259Z,50.07
2019-02-03T08:31:44.648Z,50.50
2019-02-03T08:34:14.023Z,43.53
2019-02-03T08:36:43.415Z,54.37
2019-02-03T08:39:13.218Z,61.83
2019-02-03T08:41:42.643Z,67.90
2019-02-03T08:44:12.028Z,77.27
2019-02-03T08:46:41.389Z,79.50
2019-02-03T08:49:10.781Z,67.87
2019-02-03T08:51:40.123Z,76.07
2019-02-03T08:54:09.736Z,91.57
2019-02-03T08:56:39.115Z,105.47
2019-02-03T08:59:08.494Z,80.17
2019-02-03T09:01:37.886Z,79.27
2019-02-03T09:04:07.265Z,90.50
2019-02-03T09:06:37.010Z,88.30
2019-02-03T09:09:09.573Z,92.47
2019-02-03T09:11:39.034Z,90.70
2019-02-03T09:14:08.477Z,99.27
2019-02-03T09:16:37.861Z,92.17
2019-02-03T09:19:07.278Z,83.00
2019-02-03T09:21:36.669Z,83.17
2019-02-03T09:24:06.251Z,78.53
2019-02-03T09:26:35.753Z,72.53
2019-02-03T09:29:05.273Z,59.57
2019-02-03T09:31:34.676Z,53.53
2019-02-03T09:34:04.514Z,45.60
2019-02-03T09:36:33.918Z,36.80
2019-02-03T09:39:04.389Z,30.53
2019-02-03T09:41:33.803Z,31.47
2019-02-03T09:44:03.245Z,30.33
2019-02-03T09:46:32.537Z,27.67
2019-02-03T09:49:01.919Z,26.13
2019-02-03T09:51:31.292Z,25.13
2019-02-03T09:54:00.633Z,25.43
2019-02-03T09:56:29.928Z,23.37
2019-02-03T09:58:59.328Z,26.27
2019-02-03T10:01:33.282Z,27.10
2019-02-03T10:04:02.701Z,24.20
2019-02-03T10:06:32.101Z,22.70
2019-02-03T10:09:01.456Z,21.53
2019-02-03T10:11:30.821Z,21.40
2019-02-03T10:14:00.143Z,23.60
2019-02-03T10:16:29.661Z,16.27
2019-02-03T10:18:59.091Z,20.17
2019-02-03T10:21:28.390Z,21.47
2019-02-03T10:23:57.802Z,19.67
2019-02-03T10:26:27.231Z,23.40
2019-02-03T10:28:56.995Z,16.73
2019-02-03T10:31:26.381Z,18.20
2019-02-03T10:33:55.768Z,15.40
2019-02-03T10:36:25.183Z,16.40
2019-02-03T10:38:54.711Z,15.30
2019-02-03T10:41:24.567Z,14.83
2019-02-03T10:43:56.251Z,15.90
2019-02-03T10:46:25.074Z,11.33
2019-02-03T10:48:54.472Z,13.13
2019-02-03T10:51:24.146Z,14.37
2019-02-03T10:53:53.578Z,12.80
2019-02-03T10:56:22.978Z,12.63
2019-02-03T10:58:52.323Z,10.63
2019-02-03T11:01:21.725Z,10.63
2019-02-03T11:03:51.082Z,13.97
2019-02-03T11:06:20.531Z,12.87
2019-02-03T11:08:49.919Z,12.40
2019-02-03T11:11:19.324Z,11.53
2019-02-03T11:13:48.735Z,8.20
2019-02-03T11:16:18.127Z,8.73
2019-02-03T11:18:47.509Z,27.77
2019-02-03T11:21:16.891Z,10.30
2019-02-03T11:23:47.247Z,65.30
2019-02-03T11:26:16.593Z,8.17
2019-02-03T11:28:45.946Z,14.87
2019-02-03T11:31:15.372Z,28.40
2019-02-03T11:33:44.754Z,19.67
2019-02-03T11:36:14.136Z,34.37
2019-02-03T11:38:43.544Z,18.57
2019-02-03T11:41:12.932Z,8.10
2019-02-03T11:43:43.394Z,34.33
2019-02-03T11:46:13.178Z,19.80
2019-02-03T11:48:42.563Z,14.53
2019-02-03T11:51:11.925Z,9.73
2019-02-03T11:53:41.292Z,9.73
2019-02-03T11:56:10.733Z,7.53
2019-02-03T11:58:40.157Z,7.30
2019-02-03T12:01:09.495Z,11.57
2019-02-03T12:03:38.929Z,7.73
2019-02-03T12:06:08.285Z,7.23
2019-02-03T12:08:37.657Z,8.17
2019-02-03T12:11:07.030Z,9.60
2019-02-03T12:13:36.424Z,10.00
2019-02-03T12:16:06.006Z,10.53
2019-02-03T12:18:35.393Z,8.03
2019-02-03T12:21:05.020Z,8.90
2019-02-03T12:23:34.706Z,6.13
2019-02-03T12:26:06.728Z,8.17
2019-02-03T12:28:35.087Z,6.37
2019-02-03T12:31:04.451Z,23.63
2019-02-03T12:33:33.855Z,17.70
2019-02-03T12:36:03.737Z,10.60
2019-02-03T12:38:33.164Z,28.50
2019-02-03T12:41:02.544Z,9.53
2019-02-03T12:43:31.953Z,8.80
2019-02-03T12:46:01.369Z,8.37
2019-02-03T12:48:30.753Z,7.27
2019-02-03T12:51:00.145Z,6.40
2019-02-03T12:53:29.607Z,31.07
2019-02-03T12:55:59.023Z,8.77
2019-02-03T12:58:28.460Z,7.87
2019-02-03T13:00:57.836Z,11.40
2019-02-03T13:03:27.228Z,42.87
2019-02-03T13:05:56.630Z,12.30
2019-02-03T13:08:26.055Z,7.83
2019-02-03T13:10:55.598Z,8.07
2019-02-03T13:13:24.978Z,6.87
2019-02-03T13:15:54.434Z,6.17
2019-02-03T13:18:24.020Z,6.77
2019-02-03T13:20:53.426Z,10.13
2019-02-03T13:23:22.748Z,11.63
2019-02-03T13:25:52.128Z,7.27
2019-02-03T13:28:21.489Z,7.53
2019-02-03T13:30:51.851Z,13.27
2019-02-03T13:33:21.804Z,7.43
2019-02-03T13:35:51.412Z,10.10
2019-02-03T13:38:20.769Z,19.53
2019-02-03T13:40:50.220Z,7.37
2019-02-03T13:43:19.584Z,11.67
2019-02-03T13:45:48.961Z,12.17
2019-02-03T13:48:18.342Z,29.83
2019-02-03T13:50:47.760Z,7.30
2019-02-03T13:53:17.120Z,8.03
2019-02-03T13:55:46.566Z,10.70
2019-02-03T13:58:16.014Z,8.00
2019-02-03T14:00:46.148Z,6.83
2019-02-03T14:03:15.668Z,4.73
2019-02-03T14:05:45.049Z,9.00
2019-02-03T14:08:14.446Z,6.70
2019-02-03T14:10:44.427Z,8.30
2019-02-03T14:13:13.819Z,8.27
2019-02-03T14:15:43.173Z,5.67
2019-02-03T14:18:12.545Z,9.10
2019-02-03T14:20:41.928Z,5.33
2019-02-03T14:23:11.347Z,9.13
2019-02-03T14:25:40.729Z,10.37
2019-02-03T14:28:10.220Z,13.87
2019-02-03T14:30:41.769Z,17.57
2019-02-03T14:33:11.547Z,10.97
2019-02-03T14:35:41.020Z,10.37
2019-02-03T14:38:10.448Z,11.97
2019-02-03T14:40:39.830Z,9.37
2019-02-03T14:43:09.311Z,12.27
2019-02-03T14:45:38.720Z,10.87
2019-02-03T14:48:08.372Z,6.33
2019-02-03T14:50:38.251Z,9.20
2019-02-03T14:53:15.621Z,13.97
2019-02-03T14:55:47.021Z,9.53
2019-02-03T14:58:19.528Z,16.07
2019-02-03T15:00:50.800Z,30.20
2019-02-03T15:03:22.375Z,41.33
2019-02-03T15:05:53.967Z,22.23
2019-02-03T15:08:23.393Z,18.30
2019-02-03T15:10:52.710Z,13.83
2019-02-03T15:13:21.990Z,8.43
2019-02-03T15:15:51.371Z,8.97
2019-02-03T15:18:20.726Z,8.87
2019-02-03T15:20:50.086Z,8.73
2019-02-03T15:23:19.472Z,10.40
2019-02-03T15:25:48.859Z,11.23
2019-02-03T15:28:18.366Z,8.90
2019-02-03T15:30:48.337Z,9.07
2019-02-03T15:33:17.680Z,8.30
2019-02-03T15:35:47.066Z,6.27
2019-02-03T15:38:16.445Z,6.37
2019-02-03T15:40:45.879Z,6.33
2019-02-03T15:43:25.180Z,8.10
2019-02-03T15:45:46.286Z,7.90
2019-02-03T15:48:15.555Z,8.00
2019-02-03T15:50:44.923Z,10.90
2019-02-03T15:53:14.333Z,6.67
2019-02-03T15:55:46.220Z,7.30
2019-02-03T15:58:15.794Z,5.37
2019-02-03T16:00:50.598Z,6.50
2019-02-03T16:03:19.994Z,7.53
2019-02-03T16:05:49.388Z,6.77
2019-02-03T16:08:19.083Z,5.93
2019-02-03T16:10:48.511Z,12.23
2019-02-03T16:13:17.938Z,5.97
2019-02-03T16:15:47.329Z,7.80
2019-02-03T16:18:16.762Z,8.43
2019-02-03T16:20:46.145Z,12.77
2019-02-03T16:23:15.509Z,9.30
2019-02-03T16:25:44.951Z,9.87
2019-02-03T16:28:14.360Z,10.80
2019-02-03T16:30:44.151Z,9.67
2019-02-03T16:33:13.703Z,10.20
2019-02-03T16:35:43.141Z,11.97
2019-02-03T16:38:22.814Z,11.47
2019-02-03T16:40:44.252Z,10.17
2019-02-03T16:43:13.608Z,8.57
2019-02-03T16:45:43.076Z,13.67
2019-02-03T16:48:12.590Z,16.07
2019-02-03T16:50:42.006Z,12.30
2019-02-03T16:53:11.418Z,10.07
2019-02-03T16:55:40.846Z,13.77
2019-02-03T16:58:10.242Z,15.37
2019-02-03T17:00:39.586Z,15.77
2019-02-03T17:03:09.226Z,16.80
2019-02-03T17:05:38.501Z,13.87
2019-02-03T17:08:08.653Z,14.20
2019-02-03T17:10:38.031Z,22.60
2019-02-03T17:13:07.487Z,11.77
2019-02-03T17:15:49.155Z,13.83
2019-02-03T17:18:18.526Z,10.73
2019-02-03T17:20:47.897Z,8.83
2019-02-03T17:23:17.409Z,14.30
2019-02-03T17:25:49.615Z,9.40
2019-02-03T17:28:18.975Z,10.27
2019-02-03T17:30:48.329Z,8.97
2019-02-03T17:33:17.649Z,9.53
2019-02-03T17:35:54.667Z,11.43
2019-02-03T17:38:20.996Z,8.33
2019-02-03T17:40:50.452Z,12.63
2019-02-03T17:43:19.761Z,10.37
2019-02-03T17:45:50.523Z,9.90
2019-02-03T17:48:19.889Z,10.87
2019-02-03T17:50:49.260Z,7.27
2019-02-03T17:53:18.635Z,7.40
2019-02-03T17:55:48.022Z,7.10
2019-02-03T17:58:17.399Z,9.10
2019-02-03T18:00:51.387Z,11.07
2019-02-03T18:03:20.741Z,11.67
2019-02-03T18:05:50.170Z,10.60
2019-02-03T18:08:19.884Z,10.33
2019-02-03T18:10:49.251Z,9.93
2019-02-03T18:13:18.633Z,9.07
2019-02-03T18:15:47.967Z,12.00
2019-02-03T18:18:17.359Z,10.50
2019-02-03T18:20:46.734Z,12.37
2019-02-03T18:23:16.115Z,12.93
2019-02-03T18:25:45.542Z,13.60
2019-02-03T18:28:14.868Z,17.83
2019-02-03T18:30:44.096Z,16.97
2019-02-03T18:33:13.567Z,15.20
2019-02-03T18:35:43.236Z,17.37
2019-02-03T18:38:13.887Z,17.53
2019-02-03T18:40:43.377Z,14.10
2019-02-03T18:43:12.812Z,14.23
2019-02-03T18:45:42.370Z,13.67
2019-02-03T18:48:12.379Z,14.13
2019-02-03T18:50:41.788Z,13.70
2019-02-03T18:53:11.129Z,15.47
2019-02-03T18:55:41.549Z,17.17
2019-02-03T18:58:11.018Z,13.77
2019-02-03T19:00:40.359Z,18.37
2019-02-03T19:03:10.284Z,15.80
2019-02-03T19:05:41.458Z,19.53
2019-02-03T19:08:11.207Z,21.93
2019-02-03T19:10:40.534Z,20.00
2019-02-03T19:13:09.838Z,19.37
2019-02-03T19:15:39.182Z,19.43
2019-02-03T19:18:08.844Z,21.17
2019-02-03T19:20:39.455Z,21.23
2019-02-03T19:23:10.145Z,20.63
2019-02-03T19:25:39.823Z,20.77
2019-02-03T19:28:09.095Z,19.83
2019-02-03T19:30:38.475Z,21.03
2019-02-03T19:33:08.042Z,19.70
2019-02-03T19:35:37.348Z,18.63
2019-02-03T19:38:07.517Z,16.50
2019-02-03T19:40:37.187Z,16.60
2019-02-03T19:43:07.550Z,13.53
2019-02-03T19:45:36.965Z,16.37
2019-02-03T19:48:07.157Z,14.40
2019-02-03T19:50:37.608Z,16.27
2019-02-03T19:53:08.052Z,13.10
2019-02-03T19:55:37.519Z,13.37
2019-02-03T19:58:07.896Z,14.50
2019-02-03T20:00:44.346Z,13.53
2019-02-03T20:03:13.959Z,13.70
2019-02-03T20:05:43.500Z,13.80
2019-02-03T20:08:13.061Z,12.37
2019-02-03T20:10:42.364Z,10.93
2019-02-03T20:13:11.743Z,12.33
2019-02-03T20:15:41.036Z,12.93
2019-02-03T20:18:10.327Z,11.57
2019-02-03T20:20:39.733Z,14.23
2019-02-03T20:23:09.551Z,13.37
2019-02-03T20:25:39.950Z,14.13
2019-02-03T20:28:09.332Z,15.20
2019-02-03T20:30:39.395Z,13.80
2019-02-03T20:33:08.932Z,12.23
2019-02-03T20:35:38.318Z,15.33
2019-02-03T20:38:07.867Z,12.63
2019-02-03T20:40:39.567Z,12.07
2019-02-03T20:43:08.919Z,12.07
2019-02-03T20:45:49.145Z,13.03
2019-02-03T20:48:10.826Z,13.03
2019-02-03T20:50:40.334Z,9.63
2019-02-03T20:53:09.693Z,12.70
2019-02-03T20:55:39.111Z,11.13
2019-02-03T20:58:08.487Z,12.73
2019-02-03T21:00:38.019Z,14.70
2019-02-03T21:03:07.550Z,13.53
2019-02-03T21:05:36.838Z,13.10
2019-02-03T21:08:06.299Z,12.17
2019-02-03T21:10:35.701Z,13.80
2019-02-03T21:13:10.995Z,12.90
2019-02-03T21:15:36.805Z,13.50
2019-02-03T21:18:07.837Z,12.97
2019-02-03T21:20:37.405Z,11.10
2019-02-03T21:23:07.284Z,11.10
2019-02-03T21:25:36.760Z,14.47
2019-02-03T21:28:06.209Z,12.80
2019-02-03T21:30:39.174Z,10.83
2019-02-03T21:33:08.537Z,14.30
2019-02-03T21:35:37.896Z,18.87
2019-02-03T21:38:08.560Z,14.30
2019-02-03T21:40:37.886Z,14.43
2019-02-03T21:43:07.551Z,14.20
2019-02-03T21:45:44.265Z,14.03
2019-02-03T21:48:08.999Z,14.63
2019-02-03T21:50:38.425Z,12.87
2019-02-03T21:53:07.822Z,11.93
2019-02-03T21:55:37.083Z,15.30
2019-02-03T21:58:06.547Z,12.67
2019-02-03T22:00:35.897Z,12.97
2019-02-03T22:03:05.351Z,15.67
2019-02-03T22:05:34.739Z,12.40
2019-02-03T22:08:04.461Z,17.03
2019-02-03T22:10:35.658Z,13.33
2019-02-03T22:13:05.952Z,14.40
2019-02-03T22:15:35.401Z,17.10
2019-02-03T22:18:06.460Z,14.10
2019-02-03T22:20:35.862Z,15.17
2019-02-03T22:23:05.648Z,12.73
2019-02-03T22:25:35.518Z,12.90
2019-02-03T22:28:05.202Z,15.03
2019-02-03T22:30:39.805Z,13.07
2019-02-03T22:33:09.388Z,11.87
2019-02-03T22:35:38.788Z,14.07
2019-02-03T22:38:09.509Z,11.47
2019-02-03T22:40:38.872Z,18.13
2019-02-03T22:43:08.254Z,13.07
2019-02-03T22:45:37.663Z,12.43
2019-02-03T22:48:07.782Z,12.33
2019-02-03T22:50:37.081Z,15.13
2019-02-03T22:53:07.771Z,15.57
2019-02-03T22:55:37.126Z,14.57
2019-02-03T22:58:06.404Z,13.60
2019-02-03T23:01:08.416Z,13.33
2019-02-03T23:04:01.610Z,13.87
2019-02-03T23:06:31.394Z,15.63
2019-02-03T23:09:04.594Z,16.20
2019-02-03T23:11:33.988Z,17.50
2019-02-03T23:14:04.697Z,16.10
2019-02-03T23:16:34.316Z,16.80
2019-02-03T23:19:03.944Z,17.03
2019-02-03T23:21:33.542Z,13.73
2019-02-03T23:24:02.841Z,15.80
2019-02-03T23:26:32.179Z,15.57
2019-02-03T23:29:01.579Z,14.67
2019-02-03T23:31:30.960Z,17.23
2019-02-03T23:34:00.343Z,13.20
2019-02-03T23:36:29.692Z,13.07
2019-02-03T23:38:58.955Z,16.43
2019-02-03T23:41:28.341Z,14.83
2019-02-03T23:43:57.614Z,12.83
2019-02-03T23:46:29.904Z,13.00
2019-02-03T23:48:57.978Z,13.90
2019-02-03T23:51:27.290Z,14.07
2019-02-03T23:53:56.672Z,16.43
2019-02-03T23:56:26.038Z,15.73
2019-02-03T23:58:55.381Z,15.33
